Time;durP1;ratioP1;P1;durP2;ratioP2;P2;SDS_P1;SDS_P2;PMS_P1;PMS_P2;Temp;Humidity;BMP_temperature;BMP_pressure;BME280_temperature;BME280_humidity;BME280_pressure;Samples;Min_cycle;Max_cycle;Signal;HPM_P1;HPM_P2
2022/07/02 00:01:53;;;;;;;;;;;22.10;72.30;;;;;;5072529;28;1280;-71
2022/07/02 00:04:23;;;;;;;;;;;22.10;72.30;;;;;;5071051;28;1977;-71
2022/07/02 00:06:48;;;;;;;;;;;22.10;72.30;;;;;;5073249;28;1177;-70
2022/07/02 00:09:14;;;;;;;;;;;22.10;72.30;;;;;;5084278;28;1046;-71
2022/07/02 00:11:39;;;;;;;;;;;22.10;72.30;;;;;;5060174;28;1261;-71
2022/07/02 00:14:05;;;;;;;;;;;22.10;72.30;;;;;;5090965;28;1497;-70
2022/07/02 00:16:30;;;;;;;;;;;22.10;72.30;;;;;;5075619;28;1082;-71
2022/07/02 00:18:56;;;;;;;;;;;22.10;72.40;;;;;;5072486;28;1110;-71
2022/07/02 00:21:21;;;;;;;;;;;22.10;73.10;;;;;;5071065;28;1331;-70
2022/07/02 00:23:47;;;;;;;;;;;22.10;72.40;;;;;;5072334;28;1902;-70
2022/07/02 00:26:28;;;;;;;;;;;22.10;72.30;;;;;;5072287;28;1153;-71
2022/07/02 00:29:20;;;;;;;;;;;22.10;72.30;;;;;;5082197;28;1255;-71
2022/07/02 00:31:46;;;;;;;;;;;22.10;72.40;;;;;;5054466;28;1429;-71
2022/07/02 00:34:11;;;;;;;;;;;22.10;72.40;;;;;;5087739;28;1055;-70
2022/07/02 00:36:37;;;;;;;;;;;22.10;72.40;;;;;;5072509;28;1051;-71
2022/07/02 00:39:02;;;;;;;;;;;22.10;72.40;;;;;;5087543;28;1115;-71
2022/07/02 00:41:28;;;;;;;;;;;22.10;72.40;;;;;;5072073;28;1357;-71
2022/07/02 00:43:53;;;;;;;;;;;22.10;72.40;;;;;;5070483;28;1894;-70
2022/07/02 00:46:18;;;;;;;;;;;22.10;72.40;;;;;;5072484;28;1321;-71
2022/07/02 00:48:44;;;;;;;;;;;22.10;72.40;;;;;;5088629;28;1349;-70
2022/07/02 00:51:10;;;;;;;;;;;22.10;72.40;;;;;;5095721;28;1419;-70
2022/07/02 00:53:35;;;;;;;;;;;22.10;72.30;;;;;;5096092;28;1114;-72
2022/07/02 00:56:00;;;;;;;;;;;22.10;72.40;;;;;;5095650;28;1369;-73
2022/07/02 00:58:26;;;;;;;;;;;22.10;72.30;;;;;;5089662;28;1378;-73
2022/07/02 01:00:51;;;;;;;;;;;22.10;72.40;;;;;;5074492;28;1099;-73
2022/07/02 01:03:20;;;;;;;;;;;22.10;72.30;;;;;;5075318;28;1955;-73
2022/07/02 01:05:46;;;;;;;;;;;22.10;72.30;;;;;;5073959;28;1297;-74
2022/07/02 01:10:55;;;;;;;;;;;22.10;72.40;;;;;;5075458;28;1394;-73
2022/07/02 01:13:21;;;;;;;;;;;22.00;72.30;;;;;;5075032;28;1083;-72
2022/07/02 01:15:46;;;;;;;;;;;22.00;72.30;;;;;;5071915;28;1458;-73
2022/07/02 01:18:17;;;;;;;;;;;22.00;72.30;;;;;;5075000;28;1021;-72
2022/07/02 01:20:43;;;;;;;;;;;22.00;72.30;;;;;;5075014;28;1472;-73
2022/07/02 01:23:08;;;;;;;;;;;22.00;72.30;;;;;;5073492;28;1901;-73
2022/07/02 01:25:34;;;;;;;;;;;22.00;72.30;;;;;;5074796;28;1174;-71
2022/07/02 01:27:59;;;;;;;;;;;22.00;72.30;;;;;;5074921;28;1319;-73
2022/07/02 01:30:25;;;;;;;;;;;22.00;72.30;;;;;;5075053;28;1307;-73
2022/07/02 01:32:50;;;;;;;;;;;22.00;72.30;;;;;;5073364;28;1390;-71
2022/07/02 01:35:16;;;;;;;;;;;22.00;72.30;;;;;;5074867;28;1077;-73
2022/07/02 01:37:41;;;;;;;;;;;22.00;72.30;;;;;;5074657;28;1387;-73
2022/07/02 01:40:07;;;;;;;;;;;22.00;72.30;;;;;;5074836;28;1378;-71
2022/07/02 01:42:32;;;;;;;;;;;22.00;72.30;;;;;;5073239;28;1875;-73
2022/07/02 01:44:57;;;;;;;;;;;22.00;72.30;;;;;;5075014;28;1446;-73
2022/07/02 01:47:23;;;;;;;;;;;22.00;72.30;;;;;;5073328;28;1063;-73
2022/07/02 01:49:48;;;;;;;;;;;22.00;72.30;;;;;;5074300;28;1066;-73
2022/07/02 01:52:14;;;;;;;;;;;22.00;72.30;;;;;;5074557;28;1306;-73
2022/07/02 01:54:40;;;;;;;;;;;22.00;72.30;;;;;;5074247;28;1362;-73
2022/07/02 01:57:05;;;;;;;;;;;22.00;72.30;;;;;;5074220;28;1285;-72
2022/07/02 01:59:31;;;;;;;;;;;22.00;72.30;;;;;;5074254;28;1546;-73
2022/07/02 02:01:56;;;;;;;;;;;22.00;72.30;;;;;;5073077;28;1393;-73
2022/07/02 02:04:22;;;;;;;;;;;22.00;72.30;;;;;;5073717;28;1967;-72
2022/07/02 02:06:47;;;;;;;;;;;22.00;72.30;;;;;;5074193;28;1356;-73
2022/07/02 02:09:12;;;;;;;;;;;22.00;72.30;;;;;;5074114;28;1046;-73
2022/07/02 02:11:38;;;;;;;;;;;22.00;72.30;;;;;;5073913;28;1764;-72
2022/07/02 02:14:03;;;;;;;;;;;22.00;72.30;;;;;;5073681;28;1066;-73
2022/07/02 02:16:29;;;;;;;;;;;22.00;72.30;;;;;;5084713;28;1098;-73
2022/07/02 02:18:56;;;;;;;;;;;22.00;72.30;;;;;;5087494;28;1057;-71
2022/07/02 02:21:22;;;;;;;;;;;22.00;72.30;;;;;;5073884;28;1286;-71
2022/07/02 02:23:47;;;;;;;;;;;22.00;72.30;;;;;;5072387;28;1906;-71
2022/07/02 02:26:13;;;;;;;;;;;22.00;72.30;;;;;;5073753;28;1180;-71
2022/07/02 02:28:38;;;;;;;;;;;22.00;72.30;;;;;;5080371;28;1368;-71
2022/07/02 02:31:04;;;;;;;;;;;22.00;72.30;;;;;;5093963;28;1374;-71
2022/07/02 02:33:29;;;;;;;;;;;22.00;72.30;;;;;;5085935;28;1133;-71
2022/07/02 02:35:55;;;;;;;;;;;22.00;72.30;;;;;;5087952;28;1384;-71
2022/07/02 02:38:20;;;;;;;;;;;22.00;72.30;;;;;;5093833;28;1310;-71
2022/07/02 02:40:45;;;;;;;;;;;22.00;72.30;;;;;;5094041;28;1105;-71
2022/07/02 02:43:11;;;;;;;;;;;22.00;72.30;;;;;;5093508;28;1914;-71
2022/07/02 02:45:36;;;;;;;;;;;22.00;72.30;;;;;;5093515;28;1440;-71
2022/07/02 02:48:02;;;;;;;;;;;22.00;72.30;;;;;;5093512;28;1062;-71
2022/07/02 02:50:27;;;;;;;;;;;22.00;72.30;;;;;;5093573;28;1338;-71
2022/07/02 02:52:53;;;;;;;;;;;22.00;72.30;;;;;;5093352;28;1437;-71
2022/07/02 02:55:18;;;;;;;;;;;22.00;72.30;;;;;;5093332;28;1319;-71
2022/07/02 02:57:44;;;;;;;;;;;22.00;72.30;;;;;;5093429;28;1444;-72
2022/07/02 03:00:09;;;;;;;;;;;22.00;72.30;;;;;;5073213;28;1054;-71
2022/07/02 03:02:35;;;;;;;;;;;22.00;72.30;;;;;;5080073;28;1981;-71
2022/07/02 03:05:00;;;;;;;;;;;22.00;72.30;;;;;;5079509;28;1045;-71
2022/07/02 03:07:26;;;;;;;;;;;22.00;72.30;;;;;;5086788;28;1125;-71
2022/07/02 03:09:51;;;;;;;;;;;22.00;72.30;;;;;;5086245;28;1371;-71
2022/07/02 03:12:17;;;;;;;;;;;22.00;72.30;;;;;;5092004;28;1489;-71
2022/07/02 03:14:42;;;;;;;;;;;22.00;72.30;;;;;;5077653;28;1405;-71
2022/07/02 03:17:07;;;;;;;;;;;22.00;72.30;;;;;;5093043;28;1407;-71
2022/07/02 03:19:33;;;;;;;;;;;22.00;72.30;;;;;;5079974;28;1302;-71
2022/07/02 03:21:59;;;;;;;;;;;22.00;73.00;;;;;;5074807;28;1301;-71
2022/07/02 03:24:24;;;;;;;;;;;22.00;72.30;;;;;;5071596;28;1894;-71
2022/07/02 03:26:49;;;;;;;;;;;22.00;72.30;;;;;;5079341;28;1253;-71
2022/07/02 03:29:15;;;;;;;;;;;22.00;72.30;;;;;;5078738;28;1058;-72
2022/07/02 03:31:40;;;;;;;;;;;22.00;72.30;;;;;;5086379;28;1436;-71
2022/07/02 03:34:06;;;;;;;;;;;22.00;72.30;;;;;;5086280;28;1035;-71
2022/07/02 03:36:31;;;;;;;;;;;22.00;72.30;;;;;;5094108;28;1126;-72
2022/07/02 03:38:56;;;;;;;;;;;22.00;72.30;;;;;;5093475;28;1405;-71
2022/07/02 03:41:22;;;;;;;;;;;22.00;72.30;;;;;;5092999;28;1270;-71
2022/07/02 03:43:50;;;;;;;;;;;22.00;72.30;;;;;;5091485;28;1902;-72
2022/07/02 03:46:16;;;;;;;;;;;22.00;72.30;;;;;;5086695;28;1289;-71
2022/07/02 03:48:42;;;;;;;;;;;22.00;72.30;;;;;;5085695;28;1070;-72
2022/07/02 03:51:07;;;;;;;;;;;22.00;72.30;;;;;;5072688;28;1337;-70
2022/07/02 03:53:33;;;;;;;;;;;22.00;72.30;;;;;;5072577;28;1301;-71
2022/07/02 03:55:58;;;;;;;;;;;22.00;72.30;;;;;;5072475;28;1139;-71
2022/07/02 03:58:23;;;;;;;;;;;22.00;72.30;;;;;;5072651;28;1441;-71
2022/07/02 04:00:49;;;;;;;;;;;22.00;72.30;;;;;;5072686;28;1420;-71
2022/07/02 04:03:14;;;;;;;;;;;22.00;72.30;;;;;;5072243;28;1914;-72
2022/07/02 04:05:40;;;;;;;;;;;22.00;72.30;;;;;;5091814;28;1025;-71
2022/07/02 04:08:05;;;;;;;;;;;22.00;72.30;;;;;;5092821;28;1238;-73
2022/07/02 04:10:31;;;;;;;;;;;22.00;72.30;;;;;;5092678;28;1339;-73
2022/07/02 04:12:56;;;;;;;;;;;22.00;72.30;;;;;;5092607;28;1283;-72
2022/07/02 04:15:21;;;;;;;;;;;22.00;72.30;;;;;;5086292;28;1252;-73
2022/07/02 04:17:47;;;;;;;;;;;22.00;72.30;;;;;;5072188;28;1425;-71
2022/07/02 04:20:12;;;;;;;;;;;22.00;72.30;;;;;;5065794;28;1102;-71
2022/07/02 04:22:38;;;;;;;;;;;22.00;72.30;;;;;;5095032;28;1963;-71
2022/07/02 04:25:03;;;;;;;;;;;22.00;72.30;;;;;;5091149;28;1328;-71
2022/07/02 04:27:29;;;;;;;;;;;22.00;72.30;;;;;;5076671;28;1114;-71
2022/07/02 04:29:54;;;;;;;;;;;22.00;72.30;;;;;;5088420;28;1322;-71
2022/07/02 04:32:20;;;;;;;;;;;22.00;73.00;;;;;;5087074;28;1207;-70
2022/07/02 04:34:45;;;;;;;;;;;22.00;72.30;;;;;;5082229;28;1101;-73
2022/07/02 04:37:11;;;;;;;;;;;22.00;72.30;;;;;;5096348;28;1284;-71
2022/07/02 04:39:36;;;;;;;;;;;22.00;72.30;;;;;;5096140;28;1315;-71
2022/07/02 04:42:01;;;;;;;;;;;22.00;72.30;;;;;;5096226;28;1438;-71
2022/07/02 04:44:27;;;;;;;;;;;22.00;72.30;;;;;;5091610;28;1901;-71
2022/07/02 04:46:52;;;;;;;;;;;22.00;72.30;;;;;;5086439;28;1082;-71
2022/07/02 04:49:18;;;;;;;;;;;22.00;72.30;;;;;;5096145;28;1304;-71
2022/07/02 04:51:43;;;;;;;;;;;22.00;72.30;;;;;;5095835;28;1273;-71
2022/07/02 04:54:09;;;;;;;;;;;22.00;72.30;;;;;;5095731;28;1526;-71
2022/07/02 04:56:34;;;;;;;;;;;22.00;72.30;;;;;;5095853;28;1373;-71
2022/07/02 04:59:00;;;;;;;;;;;22.00;72.20;;;;;;5083829;28;1408;-71
2022/07/02 05:01:25;;;;;;;;;;;22.00;72.30;;;;;;5068604;28;2199;-70
2022/07/02 05:03:51;;;;;;;;;;;22.00;72.30;;;;;;5071715;28;1963;-72
2022/07/02 05:06:21;;;;;;;;;;;22.00;72.30;;;;;;5050498;28;1330;-71
2022/07/02 05:08:47;;;;;;;;;;;22.00;72.30;;;;;;5076546;28;878;-73
2022/07/02 05:11:13;;;;;;;;;;;22.00;72.30;;;;;;5076225;28;1230;-73
2022/07/02 05:13:39;;;;;;;;;;;22.00;72.30;;;;;;5075987;28;882;-73
2022/07/02 05:16:04;;;;;;;;;;;22.00;72.30;;;;;;5063619;28;1117;-73
2022/07/02 05:18:30;;;;;;;;;;;22.00;72.30;;;;;;5058841;28;1421;-72
2022/07/02 05:20:55;;;;;;;;;;;22.00;72.30;;;;;;5074933;28;1235;-72
2022/07/02 05:23:21;;;;;;;;;;;22.00;72.30;;;;;;5074115;28;1894;-72
2022/07/02 05:25:46;;;;;;;;;;;22.00;72.30;;;;;;5074037;28;1147;-71
2022/07/02 05:28:12;;;;;;;;;;;22.00;72.30;;;;;;5074180;28;884;-71
2022/07/02 05:30:37;;;;;;;;;;;22.00;72.30;;;;;;5075241;28;1038;-71
2022/07/02 05:33:03;;;;;;;;;;;22.00;73.00;;;;;;5073530;28;1199;-71
2022/07/02 05:35:28;;;;;;;;;;;22.00;72.30;;;;;;5074053;28;1275;-71
2022/07/02 05:37:54;;;;;;;;;;;22.00;72.30;;;;;;5074962;28;827;-71
2022/07/02 05:40:20;;;;;;;;;;;22.00;72.30;;;;;;5073769;28;791;-70
2022/07/02 05:42:46;;;;;;;;;;;22.00;72.30;;;;;;5074712;28;1890;-70
2022/07/02 05:45:11;;;;;;;;;;;22.00;72.30;;;;;;5074365;28;812;-71
2022/07/02 05:47:36;;;;;;;;;;;22.00;72.30;;;;;;5074835;28;834;-71
2022/07/02 05:50:02;;;;;;;;;;;22.00;72.30;;;;;;5074763;28;803;-70
2022/07/02 05:52:27;;;;;;;;;;;22.00;72.30;;;;;;5074511;28;1251;-71
2022/07/02 05:54:53;;;;;;;;;;;22.00;73.00;;;;;;5074382;28;803;-72
2022/07/02 05:57:19;;;;;;;;;;;22.00;72.30;;;;;;5056744;28;1195;-71
2022/07/02 05:59:44;;;;;;;;;;;22.00;72.30;;;;;;5073126;28;842;-71
2022/07/02 06:02:09;;;;;;;;;;;21.90;72.20;;;;;;5074352;28;1314;-72
2022/07/02 06:04:35;;;;;;;;;;;22.00;72.30;;;;;;5074124;28;1910;-72
2022/07/02 06:09:44;;;;;;;;;;;21.90;72.30;;;;;;5073342;28;689;-72
2022/07/02 06:12:10;;;;;;;;;;;21.90;72.30;;;;;;5074078;28;1218;-71
2022/07/02 06:14:35;;;;;;;;;;;22.00;72.30;;;;;;5072510;28;891;-71
2022/07/02 06:17:01;;;;;;;;;;;22.00;72.30;;;;;;5054536;28;1184;-72
2022/07/02 06:19:26;;;;;;;;;;;22.00;72.40;;;;;;5064878;28;1070;-71
2022/07/02 06:21:52;;;;;;;;;;;21.90;72.30;;;;;;5074165;28;1290;-71
2022/07/02 06:24:17;;;;;;;;;;;22.00;72.30;;;;;;5073819;28;1902;-71
2022/07/02 06:26:42;;;;;;;;;;;22.00;72.40;;;;;;5074184;28;1166;-71
2022/07/02 06:29:08;;;;;;;;;;;22.00;72.30;;;;;;5073830;28;850;-71
2022/07/02 06:31:33;;;;;;;;;;;21.90;72.30;;;;;;5072730;28;1221;-71
2022/07/02 06:33:59;;;;;;;;;;;21.90;72.30;;;;;;5073573;28;760;-71
2022/07/02 06:36:24;;;;;;;;;;;22.00;72.40;;;;;;5074065;28;882;-71
2022/07/02 06:38:50;;;;;;;;;;;21.90;72.30;;;;;;5074144;28;895;-70
2022/07/02 06:44:00;;;;;;;;;;;21.90;72.30;;;;;;5072712;28;1971;-71
2022/07/02 06:46:25;;;;;;;;;;;21.90;72.30;;;;;;5072576;28;1077;-70
2022/07/02 06:48:51;;;;;;;;;;;21.90;72.30;;;;;;5073456;28;1029;-70
2022/07/02 06:51:16;;;;;;;;;;;22.00;72.40;;;;;;5073308;28;1306;-71
2022/07/02 06:53:42;;;;;;;;;;;21.90;72.30;;;;;;5084417;22;3546;-67
2022/07/02 06:56:07;;;;;;;;;;;21.90;72.30;;;;;;5066027;28;2226;-67
2022/07/02 06:58:32;;;;;;;;;;;21.90;72.30;;;;;;5064777;28;1570;-67
2022/07/02 07:00:58;;;;;;;;;;;21.90;72.30;;;;;;5055699;28;1007;-66
2022/07/02 07:03:23;;;;;;;;;;;22.00;72.40;;;;;;5073087;28;1983;-66
2022/07/02 07:05:49;;;;;;;;;;;21.90;72.30;;;;;;5073169;28;993;-66
2022/07/02 07:08:14;;;;;;;;;;;21.90;72.30;;;;;;5073203;28;1021;-66
2022/07/02 07:10:40;;;;;;;;;;;21.90;72.30;;;;;;5073113;28;834;-67
2022/07/02 07:13:05;;;;;;;;;;;21.90;72.30;;;;;;5072632;28;1303;-67
2022/07/02 07:15:31;;;;;;;;;;;21.90;72.30;;;;;;5047584;28;1154;-67
2022/07/02 07:17:56;;;;;;;;;;;21.90;72.30;;;;;;5053228;28;881;-67
2022/07/02 07:20:27;;;;;;;;;;;22.00;72.40;;;;;;5034826;28;1202;-66
2022/07/02 07:22:52;;;;;;;;;;;21.90;72.40;;;;;;5033369;28;1909;-67
2022/07/02 07:25:18;;;;;;;;;;;21.90;72.40;;;;;;5039314;28;1136;-66
2022/07/02 07:27:43;;;;;;;;;;;21.90;72.30;;;;;;5053074;28;897;-67
2022/07/02 07:30:09;;;;;;;;;;;21.90;72.40;;;;;;5035183;28;863;-67
2022/07/02 07:32:34;;;;;;;;;;;21.90;72.30;;;;;;5052872;28;1181;-66
2022/07/02 07:35:00;;;;;;;;;;;22.00;72.40;;;;;;5052890;28;799;-67
2022/07/02 07:37:25;;;;;;;;;;;21.90;72.30;;;;;;5053001;28;852;-67
2022/07/02 07:39:51;;;;;;;;;;;21.90;72.40;;;;;;5052603;28;808;-67
2022/07/02 07:42:16;;;;;;;;;;;21.90;72.30;;;;;;5052726;28;1184;-67
2022/07/02 07:44:41;;;;;;;;;;;21.90;72.30;;;;;;5052472;28;1961;-67
2022/07/02 07:47:07;;;;;;;;;;;21.90;72.30;;;;;;5052796;28;815;-66
2022/07/02 07:49:33;;;;;;;;;;;22.00;72.40;;;;;;5052776;28;807;-67
2022/07/02 07:51:58;;;;;;;;;;;21.90;72.30;;;;;;5034576;28;1292;-67
2022/07/02 07:54:24;;;;;;;;;;;21.90;72.30;;;;;;5052097;28;997;-67
2022/07/02 07:56:49;;;;;;;;;;;21.90;72.40;;;;;;5037935;28;998;-66
2022/07/02 07:59:15;;;;;;;;;;;21.90;72.30;;;;;;5056686;28;807;-67
2022/07/02 08:01:41;;;;;;;;;;;22.00;72.40;;;;;;5056826;28;810;-66
2022/07/02 08:04:06;;;;;;;;;;;21.90;72.40;;;;;;5056402;28;1903;-67
2022/07/02 08:06:32;;;;;;;;;;;21.90;72.40;;;;;;5056673;28;855;-66
2022/07/02 08:08:59;;;;;;;;;;;21.90;72.40;;;;;;5038479;28;1303;-66
2022/07/02 08:11:25;;;;;;;;;;;21.90;72.40;;;;;;5056865;28;831;-67
2022/07/02 08:13:50;;;;;;;;;;;21.90;72.40;;;;;;5056130;28;1176;-66
2022/07/02 08:16:16;;;;;;;;;;;22.00;72.40;;;;;;5042864;28;1181;-67
2022/07/02 08:18:41;;;;;;;;;;;21.90;72.40;;;;;;5036453;28;1155;-67
2022/07/02 08:21:07;;;;;;;;;;;21.90;72.40;;;;;;5035248;28;1010;-66
2022/07/02 08:23:32;;;;;;;;;;;21.90;72.30;;;;;;5035938;28;1902;-67
2022/07/02 08:25:58;;;;;;;;;;;21.90;72.40;;;;;;5048442;28;1128;-67
2022/07/02 08:28:23;;;;;;;;;;;21.90;72.30;;;;;;5056086;28;899;-66
2022/07/02 08:30:49;;;;;;;;;;;21.90;72.30;;;;;;5038555;28;784;-66
2022/07/02 08:33:16;;;;;;;;;;;21.90;72.40;;;;;;5055982;28;1334;-66
2022/07/02 08:35:42;;;;;;;;;;;21.90;72.40;;;;;;5055736;28;835;-66
2022/07/02 08:38:07;;;;;;;;;;;21.90;72.40;;;;;;5056112;28;830;-67
2022/07/02 08:40:33;;;;;;;;;;;21.90;72.40;;;;;;5055983;28;1097;-67
2022/07/02 08:42:59;;;;;;;;;;;21.90;72.40;;;;;;5055712;28;1964;-66
2022/07/02 08:45:24;;;;;;;;;;;21.90;72.40;;;;;;5055504;28;946;-67
2022/07/02 08:47:54;;;;;;;;;;;21.90;72.40;;;;;;5038039;28;905;-67
2022/07/02 08:50:20;;;;;;;;;;;21.90;72.40;;;;;;5038000;28;826;-66
2022/07/02 08:52:45;;;;;;;;;;;21.90;72.40;;;;;;5055458;28;1181;-66
2022/07/02 08:55:11;;;;;;;;;;;21.90;72.40;;;;;;5037579;28;1037;-67
2022/07/02 08:57:37;;;;;;;;;;;21.90;72.40;;;;;;5055679;28;886;-67
2022/07/02 09:00:03;;;;;;;;;;;21.90;72.40;;;;;;5055629;28;771;-67
2022/07/02 09:02:28;;;;;;;;;;;21.90;72.40;;;;;;5055517;28;1187;-67
2022/07/02 09:04:54;;;;;;;;;;;21.90;72.40;;;;;;5037440;28;1906;-67
2022/07/02 09:07:19;;;;;;;;;;;21.90;72.40;;;;;;5036703;28;796;-66
2022/07/02 09:09:45;;;;;;;;;;;21.90;72.40;;;;;;5055489;28;795;-66
2022/07/02 09:12:11;;;;;;;;;;;21.90;72.40;;;;;;5055439;28;1290;-66
2022/07/02 09:14:37;;;;;;;;;;;21.90;72.40;;;;;;5055083;28;815;-66
2022/07/02 09:17:02;;;;;;;;;;;21.90;72.40;;;;;;5017931;28;1281;-67
2022/07/02 09:19:28;;;;;;;;;;;21.90;72.40;;;;;;5035214;28;1135;-67
2022/07/02 09:21:53;;;;;;;;;;;21.90;72.40;;;;;;5035175;28;1280;-67
2022/07/02 09:24:28;;;;;;;;;;;21.90;72.40;;;;;;5034842;28;1898;-67
2022/07/02 09:27:07;;;;;;;;;;;21.90;72.40;;;;;;5035312;28;823;-66
2022/07/02 09:29:42;;;;;;;;;;;21.90;72.40;;;;;;5035276;28;878;-67
2022/07/02 09:32:08;;;;;;;;;;;21.90;72.40;;;;;;5033922;28;1232;-67
2022/07/02 09:34:33;;;;;;;;;;;21.90;72.40;;;;;;5034782;28;1065;-67
2022/07/02 09:36:58;;;;;;;;;;;21.90;72.40;;;;;;5035193;28;882;-67
2022/07/02 09:39:28;;;;;;;;;;;21.90;72.40;;;;;;5034891;28;811;-66
2022/07/02 09:41:53;;;;;;;;;;;21.90;72.40;;;;;;5035347;28;1176;-67
2022/07/02 09:44:19;;;;;;;;;;;21.90;72.40;;;;;;5016711;28;1907;-66
2022/07/02 09:46:44;;;;;;;;;;;21.90;72.40;;;;;;5034914;28;894;-67
2022/07/02 09:49:11;;;;;;;;;;;21.90;72.50;;;;;;5034742;28;834;-66
2022/07/02 09:51:49;;;;;;;;;;;21.90;72.40;;;;;;5034836;28;835;-67
2022/07/02 09:54:21;;;;;;;;;;;21.90;72.40;;;;;;5034295;28;954;-67
2022/07/02 09:56:50;;;;;;;;;;;21.90;72.50;;;;;;5034889;28;870;-67
2022/07/02 09:59:16;;;;;;;;;;;21.90;72.40;;;;;;5034393;28;867;-67
2022/07/02 10:01:44;;;;;;;;;;;21.90;72.40;;;;;;5034616;28;843;-67
2022/07/02 10:04:09;;;;;;;;;;;21.90;72.40;;;;;;5034288;28;1910;-67
2022/07/02 10:06:35;;;;;;;;;;;21.90;72.40;;;;;;5033454;28;990;-67
2022/07/02 10:09:00;;;;;;;;;;;21.90;72.40;;;;;;5034427;28;839;-67
2022/07/02 10:11:26;;;;;;;;;;;21.90;72.40;;;;;;5034431;28;986;-66
2022/07/02 10:13:51;;;;;;;;;;;21.90;72.40;;;;;;5032645;28;1206;-66
2022/07/02 10:16:20;;;;;;;;;;;21.90;72.40;;;;;;5036193;28;1198;-67
2022/07/02 10:18:45;;;;;;;;;;;21.90;72.40;;;;;;5049100;28;1158;-67
2022/07/02 10:21:13;;;;;;;;;;;21.90;72.40;;;;;;5034537;28;883;-67
2022/07/02 10:23:38;;;;;;;;;;;21.90;72.40;;;;;;5033883;28;1906;-66
2022/07/02 10:26:04;;;;;;;;;;;21.90;72.40;;;;;;5047080;28;1211;-67
2022/07/02 10:28:29;;;;;;;;;;;21.90;72.40;;;;;;5053866;28;858;-66
2022/07/02 10:30:55;;;;;;;;;;;21.90;72.40;;;;;;5053878;28;887;-66
2022/07/02 10:33:38;;;;;;;;;;;21.90;72.40;;;;;;5053905;28;1213;-66
2022/07/02 10:36:04;;;;;;;;;;;21.90;72.40;;;;;;5035925;28;1068;-66
2022/07/02 10:38:30;;;;;;;;;;;21.90;72.40;;;;;;5036014;28;823;-67
2022/07/02 10:40:55;;;;;;;;;;;21.90;72.40;;;;;;5036127;28;878;-67
2022/07/02 10:43:21;;;;;;;;;;;21.90;72.40;;;;;;5053449;28;1902;-67
2022/07/02 10:45:46;;;;;;;;;;;21.90;73.10;;;;;;5035423;28;1267;-66
2022/07/02 10:48:12;;;;;;;;;;;21.90;72.40;;;;;;5053632;28;782;-66
2022/07/02 10:50:38;;;;;;;;;;;21.90;72.40;;;;;;5035746;28;891;-66
2022/07/02 10:53:10;;;;;;;;;;;21.90;72.40;;;;;;5035811;28;1229;-67
2022/07/02 10:55:35;;;;;;;;;;;21.90;72.40;;;;;;5053221;28;816;-67
2022/07/02 10:58:01;;;;;;;;;;;21.90;72.50;;;;;;5053517;28;910;-66
2022/07/02 11:00:30;;;;;;;;;;;21.90;72.40;;;;;;5053388;28;906;-67
2022/07/02 11:02:57;;;;;;;;;;;21.90;72.40;;;;;;5053223;28;1910;-67
2022/07/02 11:05:22;;;;;;;;;;;21.90;72.40;;;;;;5035231;28;823;-66
2022/07/02 11:07:47;;;;;;;;;;;21.90;72.40;;;;;;5035511;28;978;-67
2022/07/02 11:10:13;;;;;;;;;;;21.90;72.40;;;;;;5053056;28;938;-66
2022/07/02 11:12:41;;;;;;;;;;;21.90;72.40;;;;;;5053187;28;1344;-67
2022/07/02 11:15:15;;;;;;;;;;;21.90;72.40;;;;;;5048997;28;1122;-67
2022/07/02 11:17:40;;;;;;;;;;;21.90;72.40;;;;;;5033374;28;823;-67
2022/07/02 11:20:06;;;;;;;;;;;21.90;72.40;;;;;;5015543;28;1235;-67
2022/07/02 11:22:32;;;;;;;;;;;21.90;72.40;;;;;;5031678;28;1261;-67
2022/07/02 11:24:57;;;;;;;;;;;21.90;72.50;;;;;;5036669;28;1960;-66
2022/07/02 11:27:23;;;;;;;;;;;21.90;72.40;;;;;;5035268;28;819;-67
2022/07/02 11:29:52;;;;;;;;;;;21.90;72.40;;;;;;5052767;28;899;-66
2022/07/02 11:32:18;;;;;;;;;;;21.90;72.50;;;;;;5052929;28;1209;-67
2022/07/02 11:34:43;;;;;;;;;;;21.90;72.40;;;;;;5052692;28;1021;-67
2022/07/02 11:37:18;;;;;;;;;;;21.90;72.40;;;;;;5053032;28;1013;-66
2022/07/02 11:39:43;;;;;;;;;;;21.90;72.40;;;;;;5053027;28;1088;-67
2022/07/02 11:42:09;;;;;;;;;;;21.90;72.40;;;;;;5035063;28;1318;-67
2022/07/02 11:44:34;;;;;;;;;;;21.90;72.40;;;;;;5052452;28;1906;-66
2022/07/02 11:47:00;;;;;;;;;;;21.90;72.40;;;;;;5052917;28;845;-66
2022/07/02 11:49:30;;;;;;;;;;;21.90;72.40;;;;;;5052832;28;816;-66
2022/07/02 11:51:56;;;;;;;;;;;21.90;72.40;;;;;;5034983;28;1211;-66
2022/07/02 11:54:21;;;;;;;;;;;21.90;72.40;;;;;;5052956;28;960;-66
2022/07/02 11:56:47;;;;;;;;;;;21.90;72.40;;;;;;5034874;28;788;-66
2022/07/02 11:59:13;;;;;;;;;;;21.90;72.50;;;;;;5052655;28;875;-67
2022/07/02 12:01:39;;;;;;;;;;;21.90;72.50;;;;;;5034987;28;906;-66
2022/07/02 12:04:06;;;;;;;;;;;21.90;72.40;;;;;;5034492;28;1906;-67
2022/07/02 12:06:31;;;;;;;;;;;21.90;72.50;;;;;;5052546;28;966;-67
2022/07/02 12:08:57;;;;;;;;;;;21.90;72.50;;;;;;5052634;28;1013;-67
2022/07/02 12:11:23;;;;;;;;;;;21.90;72.50;;;;;;5052634;28;1064;-67
2022/07/02 12:13:48;;;;;;;;;;;21.90;72.50;;;;;;5034519;28;1196;-66
2022/07/02 12:16:24;;;;;;;;;;;21.90;72.50;;;;;;5039295;28;1174;-66
2022/07/02 12:19:03;;;;;;;;;;;21.90;72.40;;;;;;5014914;28;1100;-66
2022/07/02 12:21:49;;;;;;;;;;;21.90;72.40;;;;;;5032876;28;1004;-67
2022/07/02 12:24:28;;;;;;;;;;;21.90;72.40;;;;;;5031612;28;1894;-66
2022/07/02 12:26:53;;;;;;;;;;;21.90;72.40;;;;;;5052514;28;1263;-66
2022/07/02 12:32:07;;;;;;;;;;;21.90;72.40;;;;;;5037683;28;1278;-66
2022/07/02 12:34:45;;;;;;;;;;;21.90;72.40;;;;;;5034255;28;950;-67
2022/07/02 12:37:24;;;;;;;;;;;21.90;72.40;;;;;;5034611;28;1130;-66
2022/07/02 12:39:49;;;;;;;;;;;21.90;72.50;;;;;;5034424;28;815;-66
2022/07/02 12:42:15;;;;;;;;;;;21.90;72.50;;;;;;5035156;28;1206;-67
2022/07/02 12:44:49;;;;;;;;;;;21.90;72.40;;;;;;5055702;28;1902;-67
2022/07/02 12:47:21;;;;;;;;;;;21.90;72.50;;;;;;5037968;28;1480;-67
2022/07/02 12:49:53;;;;;;;;;;;21.90;73.20;;;;;;5038066;28;926;-67
2022/07/02 12:52:19;;;;;;;;;;;21.90;72.50;;;;;;5037746;28;1271;-67
2022/07/02 12:54:44;;;;;;;;;;;21.90;72.50;;;;;;5070097;22;1929;-71
2022/07/02 12:57:13;;;;;;;;;;;21.90;72.50;;;;;;5055818;28;747;-71
2022/07/02 12:59:39;;;;;;;;;;;21.90;72.50;;;;;;5055679;28;835;-71
2022/07/02 13:02:04;;;;;;;;;;;21.90;72.50;;;;;;5054546;28;953;-71
2022/07/02 13:04:30;;;;;;;;;;;21.90;72.50;;;;;;5054167;28;1989;-71
2022/07/02 13:06:55;;;;;;;;;;;21.90;72.40;;;;;;5055498;28;1012;-71
2022/07/02 13:09:21;;;;;;;;;;;21.90;72.40;;;;;;5055511;28;1221;-71
2022/07/02 13:11:47;;;;;;;;;;;21.90;72.50;;;;;;5055572;28;884;-71
2022/07/02 13:14:12;;;;;;;;;;;21.90;72.50;;;;;;5052975;28;1328;-71
2022/07/02 13:16:37;;;;;;;;;;;21.90;72.40;;;;;;5037129;28;1106;-71
2022/07/02 13:19:03;;;;;;;;;;;21.90;72.50;;;;;;5042358;28;1103;-71
2022/07/02 13:21:28;;;;;;;;;;;21.90;72.50;;;;;;5053987;28;1092;-71
2022/07/02 13:23:54;;;;;;;;;;;21.90;72.50;;;;;;5054890;28;1906;-71
2022/07/02 13:26:19;;;;;;;;;;;21.90;72.50;;;;;;5039943;28;1139;-71
2022/07/02 13:28:45;;;;;;;;;;;21.90;73.20;;;;;;5034042;28;1239;-71
2022/07/02 13:31:10;;;;;;;;;;;21.90;72.50;;;;;;5035266;28;808;-72
2022/07/02 13:33:36;;;;;;;;;;;21.90;72.50;;;;;;5033834;28;1244;-71
2022/07/02 13:36:02;;;;;;;;;;;21.90;72.50;;;;;;5034798;28;800;-71
2022/07/02 13:38:27;;;;;;;;;;;21.90;72.50;;;;;;5033894;28;1097;-71
2022/07/02 13:40:52;;;;;;;;;;;21.90;72.40;;;;;;5034981;28;842;-72
2022/07/02 13:43:18;;;;;;;;;;;21.90;72.50;;;;;;5034801;28;1965;-71
2022/07/02 13:45:43;;;;;;;;;;;21.90;72.50;;;;;;5033282;28;1677;-71
2022/07/02 13:48:09;;;;;;;;;;;21.90;72.50;;;;;;5034973;28;898;-71
2022/07/02 13:50:34;;;;;;;;;;;21.90;72.50;;;;;;5033451;28;958;-71
2022/07/02 13:53:00;;;;;;;;;;;21.90;72.50;;;;;;5034567;28;1005;-71
2022/07/02 13:55:25;;;;;;;;;;;21.90;72.50;;;;;;5034249;28;1193;-71
2022/07/02 13:57:50;;;;;;;;;;;21.90;72.50;;;;;;5033525;28;850;-71
2022/07/02 14:00:16;;;;;;;;;;;21.90;73.20;;;;;;5033463;28;1025;-71
2022/07/02 14:02:42;;;;;;;;;;;21.90;72.50;;;;;;5034676;28;1064;-71
2022/07/02 14:05:08;;;;;;;;;;;21.90;72.50;;;;;;5034074;28;1906;-71
2022/07/02 14:07:33;;;;;;;;;;;21.90;72.50;;;;;;5033303;28;1098;-71
2022/07/02 14:09:59;;;;;;;;;;;21.90;72.50;;;;;;5033539;28;887;-71
2022/07/02 14:12:25;;;;;;;;;;;21.90;72.50;;;;;;5034515;28;887;-71
2022/07/02 14:14:52;;;;;;;;;;;21.90;72.50;;;;;;5035521;28;1206;-71
2022/07/02 14:17:18;;;;;;;;;;;21.90;72.50;;;;;;5053843;28;858;-71
2022/07/02 14:19:43;;;;;;;;;;;21.90;72.50;;;;;;5023290;28;1317;-71
2022/07/02 14:22:08;;;;;;;;;;;21.90;72.50;;;;;;5034276;28;839;-71
2022/07/02 14:24:34;;;;;;;;;;;21.90;72.50;;;;;;5033314;28;1962;-71
2022/07/02 14:26:59;;;;;;;;;;;21.90;72.50;;;;;;5054094;28;1039;-71
2022/07/02 14:29:25;;;;;;;;;;;21.90;72.50;;;;;;5054323;28;719;-71
2022/07/02 14:31:51;;;;;;;;;;;21.90;72.50;;;;;;5053994;28;858;-71
2022/07/02 14:34:17;;;;;;;;;;;21.90;72.50;;;;;;5053453;28;1594;-71
2022/07/02 14:36:43;;;;;;;;;;;21.90;72.50;;;;;;5053848;28;839;-71
2022/07/02 14:39:08;;;;;;;;;;;21.90;72.50;;;;;;5053826;28;822;-71